IBE14N GLRB-FKKD
Flight info
| Callsign | IBE14N |
|---|---|
| Flight time | 3h 4m |
| Altitude | 37000 |
| Route | RITAM UB600 ACC DCT ULRIV DCT KOKAM KOKAM1D |
| Aircraft | A320/M-SDE3FGHIRWY/LB1 |
Departure
| Time | 2026-04-27 09:29 |
|---|---|
| Airport | Roberts International Airport (GLRB) |
Arrival
| Time | 2026-04-27 12:34 |
|---|---|
| Airport | Douala International Airport (FKKD) |
| Time | Latitude | Longitude | Altitude | Speed | Heading |
|---|---|---|---|---|---|
| 2026-04-27 07:58 | 6.24161 | -10.35427 | 19 ft | 0 kts | 108° |
| 2026-04-27 09:27 | 6.24177 | -10.35389 | 33 ft | 18 kts | 25° |
| 2026-04-27 09:27 | 6.24303 | -10.35375 | 34 ft | 19 kts | 4° |
| 2026-04-27 09:27 | 6.24453 | -10.35376 | 34 ft | 25 kts | 359° |
| 2026-04-27 09:28 | 6.24610 | -10.35384 | 32 ft | 22 kts | 338° |
| 2026-04-27 09:28 | 6.24630 | -10.35486 | 32 ft | 17 kts | 216° |
| 2026-04-27 09:28 | 6.24474 | -10.35583 | 32 ft | 54 kts | 211° |
| 2026-04-27 09:28 | 6.23955 | -10.35890 | 36 ft | 116 kts | 212° |
| 2026-04-27 09:29 | 6.23120 | -10.36394 | 36 ft | 161 kts | 211° |
| 2026-04-27 09:29 | 6.22110 | -10.37012 | 430 ft | 173 kts | 214° |
| 2026-04-27 09:29 | 6.21070 | -10.37640 | 1009 ft | 177 kts | 211° |
| 2026-04-27 09:29 | 6.19997 | -10.38281 | 1620 ft | 181 kts | 212° |
| 2026-04-27 09:30 | 6.18890 | -10.38943 | 2126 ft | 191 kts | 211° |
| 2026-04-27 09:30 | 6.17702 | -10.39653 | 2493 ft | 206 kts | 211° |
| 2026-04-27 09:30 | 6.16446 | -10.40380 | 2895 ft | 215 kts | 204° |
| 2026-04-27 09:30 | 6.14937 | -10.40566 | 3348 ft | 225 kts | 165° |
| 2026-04-27 09:31 | 6.13595 | -10.39793 | 3880 ft | 233 kts | 129° |
| 2026-04-27 09:31 | 6.12635 | -10.38424 | 4401 ft | 248 kts | 122° |
| 2026-04-27 09:31 | 6.11671 | -10.36918 | 4907 ft | 264 kts | 122° |
| 2026-04-27 09:31 | 6.10669 | -10.35336 | 5610 ft | 271 kts | 121° |
| 2026-04-27 09:32 | 6.09652 | -10.33734 | 6456 ft | 273 kts | 122° |
| 2026-04-27 09:32 | 6.08623 | -10.32124 | 7250 ft | 275 kts | 122° |
| 2026-04-27 09:32 | 6.07583 | -10.30502 | 8045 ft | 277 kts | 121° |
| 2026-04-27 09:32 | 6.06529 | -10.28864 | 8807 ft | 280 kts | 121° |
| 2026-04-27 09:33 | 6.05464 | -10.27212 | 9570 ft | 283 kts | 121° |
| 2026-04-27 09:33 | 6.04384 | -10.25541 | 10255 ft | 288 kts | 121° |
| 2026-04-27 09:33 | 6.03404 | -10.23732 | 10633 ft | 302 kts | 110° |
| 2026-04-27 09:33 | 6.02879 | -10.21639 | 10974 ft | 317 kts | 96° |
| 2026-04-27 09:34 | 6.02803 | -10.19373 | 11318 ft | 331 kts | 90° |
| 2026-04-27 09:34 | 6.02776 | -10.17031 | 11880 ft | 337 kts | 90° |
| 2026-04-27 09:34 | 6.02745 | -10.14664 | 12543 ft | 340 kts | 90° |
| 2026-04-27 09:34 | 6.02713 | -10.12279 | 13203 ft | 343 kts | 90° |
| 2026-04-27 09:35 | 6.02677 | -10.09904 | 13837 ft | 346 kts | 90° |
| 2026-04-27 09:35 | 6.02640 | -10.07477 | 14391 ft | 349 kts | 90° |
| 2026-04-27 09:35 | 6.02598 | -10.05023 | 14923 ft | 353 kts | 90° |
| 2026-04-27 09:35 | 6.02555 | -10.02541 | 15451 ft | 357 kts | 90° |
| 2026-04-27 09:36 | 6.02514 | -10.00033 | 15966 ft | 361 kts | 91° |
| 2026-04-27 09:36 | 6.02474 | -9.97495 | 16484 ft | 365 kts | 91° |
| 2026-04-27 09:36 | 6.02435 | -9.94934 | 16991 ft | 369 kts | 91° |
| 2026-04-27 09:36 | 6.02395 | -9.92361 | 17495 ft | 373 kts | 91° |
| 2026-04-27 09:37 | 6.02351 | -9.89740 | 18001 ft | 377 kts | 91° |
| 2026-04-27 09:37 | 6.02307 | -9.87090 | 18471 ft | 381 kts | 91° |
| 2026-04-27 09:37 | 6.02262 | -9.84418 | 18906 ft | 384 kts | 91° |
| 2026-04-27 09:37 | 6.02218 | -9.81722 | 19353 ft | 388 kts | 91° |
| 2026-04-27 09:38 | 6.02177 | -9.79002 | 19799 ft | 391 kts | 91° |
| 2026-04-27 09:38 | 6.02135 | -9.76260 | 20243 ft | 394 kts | 91° |
| 2026-04-27 09:38 | 6.02093 | -9.73494 | 20693 ft | 398 kts | 91° |
| 2026-04-27 09:38 | 6.02049 | -9.70705 | 21121 ft | 401 kts | 91° |
| 2026-04-27 09:39 | 6.02004 | -9.67890 | 21561 ft | 404 kts | 91° |
| 2026-04-27 09:39 | 6.01958 | -9.65053 | 21992 ft | 408 kts | 91° |
| 2026-04-27 09:39 | 6.01912 | -9.62198 | 22414 ft | 411 kts | 91° |
| 2026-04-27 09:39 | 6.01866 | -9.59311 | 22832 ft | 414 kts | 92° |
| 2026-04-27 09:40 | 6.01820 | -9.56408 | 23241 ft | 418 kts | 92° |
| 2026-04-27 09:40 | 6.01772 | -9.53477 | 23628 ft | 421 kts | 92° |
| 2026-04-27 09:40 | 6.01721 | -9.50525 | 23958 ft | 424 kts | 92° |
| 2026-04-27 09:40 | 6.01671 | -9.47559 | 24295 ft | 426 kts | 92° |
| 2026-04-27 09:41 | 6.01619 | -9.44615 | 24624 ft | 428 kts | 92° |
| 2026-04-27 09:41 | 6.01564 | -9.41577 | 24958 ft | 430 kts | 91° |
| 2026-04-27 09:41 | 6.01513 | -9.38606 | 25283 ft | 432 kts | 91° |
| 2026-04-27 09:41 | 6.01464 | -9.35581 | 25607 ft | 434 kts | 91° |
| 2026-04-27 09:42 | 6.01414 | -9.32536 | 25921 ft | 436 kts | 91° |
| 2026-04-27 09:42 | 6.01362 | -9.29479 | 26224 ft | 438 kts | 91° |
| 2026-04-27 09:42 | 6.01313 | -9.26414 | 26539 ft | 441 kts | 91° |
| 2026-04-27 09:42 | 6.01264 | -9.23330 | 26836 ft | 442 kts | 91° |
| 2026-04-27 09:43 | 6.01214 | -9.20232 | 27133 ft | 444 kts | 91° |
| 2026-04-27 09:43 | 6.01161 | -9.17121 | 27428 ft | 446 kts | 91° |
| 2026-04-27 09:43 | 6.01108 | -9.13998 | 27717 ft | 448 kts | 91° |
| 2026-04-27 09:43 | 6.01053 | -9.10866 | 28005 ft | 450 kts | 91° |
| 2026-04-27 09:44 | 6.00999 | -9.07710 | 28270 ft | 452 kts | 91° |
| 2026-04-27 09:44 | 6.00946 | -9.04562 | 28554 ft | 454 kts | 91° |
| 2026-04-27 09:44 | 6.00893 | -9.01384 | 28824 ft | 456 kts | 91° |
| 2026-04-27 09:44 | 6.00840 | -8.98196 | 29083 ft | 458 kts | 91° |
| 2026-04-27 09:45 | 6.00784 | -8.94991 | 29334 ft | 459 kts | 91° |
| 2026-04-27 09:45 | 6.00724 | -8.91775 | 29587 ft | 461 kts | 91° |
| 2026-04-27 09:45 | 6.00666 | -8.88548 | 29825 ft | 463 kts | 91° |
| 2026-04-27 09:45 | 6.00608 | -8.85305 | 30059 ft | 465 kts | 91° |
| 2026-04-27 09:46 | 6.00551 | -8.82055 | 30251 ft | 467 kts | 91° |
| 2026-04-27 09:46 | 6.00489 | -8.78789 | 30446 ft | 468 kts | 91° |
| 2026-04-27 09:46 | 6.00430 | -8.75512 | 30638 ft | 470 kts | 90° |
| 2026-04-27 09:46 | 6.00373 | -8.72225 | 30824 ft | 471 kts | 90° |
| 2026-04-27 09:47 | 6.00158 | -8.68940 | 31010 ft | 473 kts | 98° |
| 2026-04-27 09:47 | 5.99664 | -8.65672 | 31187 ft | 474 kts | 98° |
| 2026-04-27 09:47 | 5.99164 | -8.62401 | 31435 ft | 473 kts | 98° |
| 2026-04-27 09:47 | 5.98664 | -8.59131 | 31705 ft | 473 kts | 98° |
| 2026-04-27 09:48 | 5.98176 | -8.55918 | 31969 ft | 472 kts | 98° |
| 2026-04-27 09:48 | 5.97681 | -8.52660 | 32234 ft | 471 kts | 98° |
| 2026-04-27 09:48 | 5.97189 | -8.49410 | 32506 ft | 471 kts | 98° |
| 2026-04-27 09:48 | 5.96701 | -8.46158 | 32766 ft | 470 kts | 98° |
| 2026-04-27 09:49 | 5.96210 | -8.42913 | 33027 ft | 470 kts | 98° |
| 2026-04-27 09:49 | 5.95715 | -8.39669 | 33289 ft | 470 kts | 98° |
| 2026-04-27 09:49 | 5.95226 | -8.36438 | 33565 ft | 469 kts | 98° |
| 2026-04-27 09:49 | 5.94736 | -8.33193 | 33842 ft | 468 kts | 98° |
| 2026-04-27 09:50 | 5.94248 | -8.29957 | 34102 ft | 468 kts | 98° |
| 2026-04-27 09:50 | 5.93760 | -8.26729 | 34358 ft | 467 kts | 98° |
| 2026-04-27 09:50 | 5.93274 | -8.23509 | 34612 ft | 466 kts | 98° |
| 2026-04-27 09:50 | 5.92789 | -8.20295 | 34871 ft | 465 kts | 98° |
| 2026-04-27 09:51 | 5.92301 | -8.17086 | 35108 ft | 464 kts | 98° |
| 2026-04-27 09:51 | 5.91810 | -8.13885 | 35340 ft | 463 kts | 98° |
| 2026-04-27 09:51 | 5.91324 | -8.10691 | 35563 ft | 462 kts | 98° |
| 2026-04-27 09:51 | 5.90839 | -8.07501 | 35778 ft | 462 kts | 98° |
| 2026-04-27 09:52 | 5.90355 | -8.04318 | 35986 ft | 461 kts | 98° |
| 2026-04-27 09:52 | 5.89869 | -8.01135 | 36194 ft | 460 kts | 98° |
| 2026-04-27 09:52 | 5.89382 | -7.97958 | 36402 ft | 460 kts | 98° |
| 2026-04-27 09:52 | 5.88899 | -7.94792 | 36616 ft | 459 kts | 98° |
| 2026-04-27 09:53 | 5.88428 | -7.91679 | 36816 ft | 458 kts | 98° |
| 2026-04-27 09:53 | 5.87951 | -7.88513 | 36972 ft | 457 kts | 98° |
| 2026-04-27 09:53 | 5.87474 | -7.85366 | 37008 ft | 455 kts | 98° |
| 2026-04-27 09:54 | 5.86512 | -7.79085 | 37009 ft | 455 kts | 98° |
| 2026-04-27 09:54 | 5.85543 | -7.72815 | 37007 ft | 454 kts | 99° |
| 2026-04-27 09:55 | 5.84582 | -7.66542 | 37006 ft | 454 kts | 98° |
| 2026-04-27 09:55 | 5.83163 | -7.57124 | 37003 ft | 455 kts | 98° |
| 2026-04-27 09:56 | 5.82193 | -7.50850 | 37011 ft | 455 kts | 98° |
| 2026-04-27 09:56 | 5.81218 | -7.44576 | 37011 ft | 455 kts | 98° |
| 2026-04-27 09:57 | 5.80426 | -7.39364 | 37013 ft | 455 kts | 98° |
| 2026-04-27 09:57 | 5.79507 | -7.33082 | 37017 ft | 455 kts | 98° |
| 2026-04-27 09:58 | 5.78584 | -7.26796 | 37014 ft | 455 kts | 98° |
| 2026-04-27 09:58 | 5.77657 | -7.20517 | 37014 ft | 455 kts | 98° |
| 2026-04-27 09:59 | 5.76725 | -7.14235 | 37013 ft | 455 kts | 98° |
| 2026-04-27 09:59 | 5.75781 | -7.07949 | 37015 ft | 455 kts | 98° |
| 2026-04-27 10:00 | 5.74848 | -7.01708 | 37015 ft | 455 kts | 98° |
| 2026-04-27 10:00 | 5.73903 | -6.95385 | 37016 ft | 455 kts | 98° |
| 2026-04-27 10:01 | 5.72964 | -6.89139 | 37015 ft | 455 kts | 98° |
| 2026-04-27 10:01 | 5.72020 | -6.82850 | 37010 ft | 456 kts | 98° |
| 2026-04-27 10:02 | 5.71080 | -6.76563 | 37000 ft | 456 kts | 98° |
| 2026-04-27 10:02 | 5.70141 | -6.70270 | 37007 ft | 456 kts | 98° |
| 2026-04-27 10:03 | 5.69199 | -6.63978 | 36997 ft | 456 kts | 98° |
| 2026-04-27 10:03 | 5.68256 | -6.57686 | 36997 ft | 456 kts | 98° |
| 2026-04-27 10:04 | 5.67311 | -6.51389 | 37000 ft | 456 kts | 98° |
| 2026-04-27 10:04 | 5.66363 | -6.45093 | 37003 ft | 456 kts | 98° |
| 2026-04-27 10:05 | 5.65415 | -6.38792 | 37006 ft | 456 kts | 98° |
| 2026-04-27 10:05 | 5.64460 | -6.32491 | 37005 ft | 457 kts | 98° |
| 2026-04-27 10:06 | 5.63508 | -6.26194 | 37009 ft | 456 kts | 98° |
| 2026-04-27 10:06 | 5.62566 | -6.19896 | 37006 ft | 456 kts | 98° |
| 2026-04-27 10:07 | 5.61621 | -6.13596 | 37004 ft | 456 kts | 98° |
| 2026-04-27 10:07 | 5.60674 | -6.07308 | 37002 ft | 456 kts | 98° |
| 2026-04-27 10:08 | 5.59728 | -6.01059 | 36999 ft | 456 kts | 98° |
| 2026-04-27 10:08 | 5.58776 | -5.94775 | 37002 ft | 456 kts | 98° |
| 2026-04-27 10:09 | 5.57824 | -5.88490 | 37002 ft | 455 kts | 98° |
| 2026-04-27 10:09 | 5.56875 | -5.82202 | 37001 ft | 455 kts | 98° |
| 2026-04-27 10:10 | 5.55923 | -5.75914 | 36994 ft | 456 kts | 98° |
| 2026-04-27 10:10 | 5.54976 | -5.69624 | 36994 ft | 456 kts | 98° |
| 2026-04-27 10:11 | 5.54050 | -5.63331 | 36991 ft | 456 kts | 98° |
| 2026-04-27 10:11 | 5.53123 | -5.57032 | 36999 ft | 456 kts | 98° |
| 2026-04-27 10:12 | 5.52185 | -5.50734 | 37006 ft | 456 kts | 98° |
| 2026-04-27 10:12 | 5.51241 | -5.44432 | 37000 ft | 456 kts | 98° |
| 2026-04-27 10:13 | 5.50300 | -5.38136 | 36998 ft | 456 kts | 98° |
| 2026-04-27 10:13 | 5.49362 | -5.31842 | 36992 ft | 456 kts | 98° |
| 2026-04-27 10:14 | 5.48418 | -5.25546 | 36986 ft | 457 kts | 98° |
| 2026-04-27 10:14 | 5.47479 | -5.19245 | 36985 ft | 457 kts | 98° |
| 2026-04-27 10:15 | 5.46548 | -5.12979 | 36989 ft | 457 kts | 98° |
| 2026-04-27 10:15 | 5.45602 | -5.06671 | 36987 ft | 457 kts | 98° |
| 2026-04-27 10:16 | 5.44659 | -5.00371 | 36988 ft | 457 kts | 98° |
| 2026-04-27 10:16 | 5.43718 | -4.94064 | 36992 ft | 457 kts | 98° |
| 2026-04-27 10:17 | 5.42773 | -4.87768 | 36998 ft | 456 kts | 98° |
| 2026-04-27 10:17 | 5.41824 | -4.81474 | 37001 ft | 456 kts | 98° |
| 2026-04-27 10:18 | 5.40877 | -4.75182 | 37002 ft | 455 kts | 98° |
| 2026-04-27 10:18 | 5.39936 | -4.68898 | 36997 ft | 455 kts | 98° |
| 2026-04-27 10:19 | 5.38995 | -4.62625 | 36994 ft | 455 kts | 98° |
| 2026-04-27 10:19 | 5.38056 | -4.56351 | 36990 ft | 455 kts | 98° |
| 2026-04-27 10:20 | 5.37117 | -4.50123 | 36986 ft | 455 kts | 98° |
| 2026-04-27 10:20 | 5.36167 | -4.43852 | 36988 ft | 454 kts | 98° |
| 2026-04-27 10:21 | 5.35219 | -4.37581 | 36982 ft | 455 kts | 98° |
| 2026-04-27 10:21 | 5.34273 | -4.31303 | 36981 ft | 455 kts | 98° |
| 2026-04-27 10:22 | 5.33327 | -4.25034 | 36985 ft | 455 kts | 98° |
| 2026-04-27 10:22 | 5.32381 | -4.18764 | 36991 ft | 455 kts | 98° |
| 2026-04-27 10:23 | 5.31432 | -4.12494 | 36996 ft | 455 kts | 98° |
| 2026-04-27 10:23 | 5.30488 | -4.06221 | 37003 ft | 455 kts | 98° |
| 2026-04-27 10:24 | 5.29540 | -3.99945 | 37011 ft | 455 kts | 98° |
| 2026-04-27 10:24 | 5.28598 | -3.93665 | 37011 ft | 455 kts | 96° |
| 2026-04-27 10:25 | 5.28681 | -3.87390 | 37006 ft | 454 kts | 84° |
| 2026-04-27 10:25 | 5.29285 | -3.81083 | 37006 ft | 454 kts | 84° |
| 2026-04-27 10:26 | 5.29889 | -3.74733 | 36974 ft | 459 kts | 84° |
| 2026-04-27 10:26 | 5.30486 | -3.68358 | 36984 ft | 459 kts | 84° |
| 2026-04-27 10:27 | 5.31077 | -3.61979 | 36986 ft | 459 kts | 84° |
| 2026-04-27 10:27 | 5.31664 | -3.55598 | 36993 ft | 459 kts | 84° |
| 2026-04-27 10:28 | 5.32266 | -3.49221 | 36996 ft | 459 kts | 84° |
| 2026-04-27 10:28 | 5.32868 | -3.42839 | 37002 ft | 459 kts | 84° |
| 2026-04-27 10:29 | 5.33463 | -3.36461 | 36999 ft | 459 kts | 84° |
| 2026-04-27 10:29 | 5.34052 | -3.30078 | 37000 ft | 459 kts | 84° |
| 2026-04-27 10:30 | 5.34638 | -3.23740 | 37000 ft | 459 kts | 84° |
| 2026-04-27 10:30 | 5.35234 | -3.17357 | 36998 ft | 459 kts | 84° |
| 2026-04-27 10:31 | 5.35830 | -3.10978 | 36993 ft | 459 kts | 84° |
| 2026-04-27 10:31 | 5.36419 | -3.04601 | 36992 ft | 459 kts | 84° |
| 2026-04-27 10:32 | 5.37010 | -2.98218 | 36993 ft | 459 kts | 84° |
| 2026-04-27 10:32 | 5.37602 | -2.91835 | 36996 ft | 459 kts | 84° |
| 2026-04-27 10:33 | 5.38192 | -2.85456 | 36994 ft | 459 kts | 84° |
| 2026-04-27 10:33 | 5.38778 | -2.79081 | 36993 ft | 459 kts | 84° |
| 2026-04-27 10:34 | 5.39364 | -2.72706 | 36989 ft | 458 kts | 84° |
| 2026-04-27 10:34 | 5.39954 | -2.66334 | 36988 ft | 459 kts | 84° |
| 2026-04-27 10:35 | 5.40541 | -2.59962 | 36996 ft | 459 kts | 84° |
| 2026-04-27 10:35 | 5.41112 | -2.53641 | 36999 ft | 459 kts | 84° |
| 2026-04-27 10:36 | 5.41694 | -2.47262 | 37000 ft | 459 kts | 84° |
| 2026-04-27 10:36 | 5.42279 | -2.40883 | 37000 ft | 458 kts | 84° |
| 2026-04-27 10:37 | 5.42869 | -2.34516 | 36998 ft | 459 kts | 84° |
| 2026-04-27 10:37 | 5.43459 | -2.28139 | 36993 ft | 459 kts | 84° |
| 2026-04-27 10:38 | 5.44040 | -2.21760 | 37000 ft | 459 kts | 84° |
| 2026-04-27 10:38 | 5.44617 | -2.15382 | 36998 ft | 459 kts | 84° |
| 2026-04-27 10:39 | 5.45195 | -2.08999 | 36995 ft | 459 kts | 84° |
| 2026-04-27 10:39 | 5.45774 | -2.02612 | 37005 ft | 459 kts | 84° |
| 2026-04-27 10:40 | 5.46354 | -1.96231 | 37014 ft | 459 kts | 84° |
| 2026-04-27 10:40 | 5.46929 | -1.89856 | 37010 ft | 459 kts | 84° |
| 2026-04-27 10:41 | 5.47511 | -1.83486 | 37008 ft | 459 kts | 84° |
| 2026-04-27 10:41 | 5.48091 | -1.77114 | 37005 ft | 458 kts | 84° |
| 2026-04-27 10:42 | 5.48671 | -1.70743 | 37008 ft | 458 kts | 84° |
| 2026-04-27 10:42 | 5.49257 | -1.64379 | 37007 ft | 458 kts | 84° |
| 2026-04-27 10:43 | 5.49866 | -1.58016 | 37010 ft | 458 kts | 84° |
| 2026-04-27 10:43 | 5.50470 | -1.51701 | 37010 ft | 457 kts | 84° |
| 2026-04-27 10:44 | 5.51074 | -1.45356 | 37002 ft | 457 kts | 84° |
| 2026-04-27 10:44 | 5.51677 | -1.39012 | 36998 ft | 456 kts | 84° |
| 2026-04-27 10:45 | 5.52272 | -1.32677 | 37002 ft | 456 kts | 84° |
| 2026-04-27 10:45 | 5.52872 | -1.26337 | 37004 ft | 456 kts | 84° |
| 2026-04-27 10:46 | 5.53474 | -1.19999 | 37009 ft | 456 kts | 84° |
| 2026-04-27 10:46 | 5.54069 | -1.13667 | 37010 ft | 456 kts | 84° |
| 2026-04-27 10:47 | 5.54669 | -1.07334 | 37016 ft | 456 kts | 84° |
| 2026-04-27 10:47 | 5.55278 | -1.01000 | 37021 ft | 456 kts | 84° |
| 2026-04-27 10:48 | 5.55888 | -0.94672 | 37018 ft | 455 kts | 84° |
| 2026-04-27 10:48 | 5.56498 | -0.88344 | 37014 ft | 455 kts | 84° |
| 2026-04-27 10:49 | 5.57104 | -0.82015 | 37012 ft | 456 kts | 84° |
| 2026-04-27 10:49 | 5.57606 | -0.76757 | 37015 ft | 456 kts | 84° |
| 2026-04-27 10:50 | 5.58204 | -0.70424 | 37013 ft | 455 kts | 84° |
| 2026-04-27 10:50 | 5.58904 | -0.63071 | 37007 ft | 455 kts | 84° |
| 2026-04-27 10:51 | 5.59408 | -0.57777 | 37006 ft | 455 kts | 84° |
| 2026-04-27 10:51 | 5.60012 | -0.51454 | 37005 ft | 455 kts | 84° |
| 2026-04-27 10:52 | 5.60614 | -0.45120 | 37015 ft | 455 kts | 84° |
| 2026-04-27 10:52 | 5.61210 | -0.38798 | 37012 ft | 455 kts | 84° |
| 2026-04-27 10:53 | 5.62110 | -0.29320 | 37013 ft | 454 kts | 84° |
| 2026-04-27 10:54 | 5.62705 | -0.23018 | 37011 ft | 453 kts | 84° |
| 2026-04-27 10:54 | 5.63292 | -0.16775 | 37012 ft | 452 kts | 85° |
| 2026-04-27 10:55 | 5.63277 | -0.10475 | 37011 ft | 451 kts | 91° |
| 2026-04-27 10:55 | 5.63114 | -0.04190 | 37014 ft | 450 kts | 91° |
| 2026-04-27 10:56 | 5.62958 | 0.02082 | 37015 ft | 449 kts | 91° |
| 2026-04-27 10:56 | 5.62797 | 0.08350 | 37014 ft | 449 kts | 91° |
| 2026-04-27 10:57 | 5.62625 | 0.14600 | 37018 ft | 448 kts | 91° |
| 2026-04-27 10:57 | 5.62448 | 0.20838 | 37018 ft | 446 kts | 91° |
| 2026-04-27 10:58 | 5.62282 | 0.27063 | 37015 ft | 445 kts | 91° |
| 2026-04-27 10:58 | 5.62124 | 0.33271 | 37021 ft | 445 kts | 91° |
| 2026-04-27 10:59 | 5.61960 | 0.39466 | 37022 ft | 443 kts | 91° |
| 2026-04-27 10:59 | 5.61788 | 0.45641 | 37019 ft | 442 kts | 91° |
| 2026-04-27 11:00 | 5.61537 | 0.54901 | 37019 ft | 442 kts | 91° |
| 2026-04-27 11:00 | 5.61374 | 0.61069 | 37012 ft | 442 kts | 91° |
| 2026-04-27 11:01 | 5.61203 | 0.67234 | 37017 ft | 442 kts | 91° |
| 2026-04-27 11:01 | 5.61032 | 0.73349 | 37012 ft | 441 kts | 91° |
| 2026-04-27 11:02 | 5.60862 | 0.79502 | 37016 ft | 441 kts | 91° |
| 2026-04-27 11:02 | 5.60693 | 0.85647 | 37023 ft | 440 kts | 91° |
| 2026-04-27 11:03 | 5.60525 | 0.91787 | 37018 ft | 440 kts | 91° |
| 2026-04-27 11:03 | 5.60356 | 0.97933 | 37010 ft | 440 kts | 91° |
| 2026-04-27 11:04 | 5.60184 | 1.04073 | 37006 ft | 440 kts | 91° |
| 2026-04-27 11:04 | 5.60012 | 1.10218 | 37009 ft | 440 kts | 91° |
| 2026-04-27 11:05 | 5.59837 | 1.16362 | 37003 ft | 440 kts | 91° |
| 2026-04-27 11:05 | 5.59658 | 1.22501 | 36999 ft | 440 kts | 91° |
| 2026-04-27 11:06 | 5.59484 | 1.28636 | 36989 ft | 440 kts | 91° |
| 2026-04-27 11:06 | 5.59318 | 1.34739 | 36979 ft | 440 kts | 91° |
| 2026-04-27 11:07 | 5.59142 | 1.40876 | 36982 ft | 440 kts | 91° |
| 2026-04-27 11:07 | 5.58957 | 1.47020 | 36984 ft | 440 kts | 91° |
| 2026-04-27 11:08 | 5.58778 | 1.53158 | 36989 ft | 440 kts | 91° |
| 2026-04-27 11:08 | 5.58601 | 1.59295 | 36982 ft | 440 kts | 91° |
| 2026-04-27 11:09 | 5.58425 | 1.65429 | 36981 ft | 440 kts | 91° |
| 2026-04-27 11:09 | 5.58242 | 1.71563 | 36979 ft | 439 kts | 91° |
| 2026-04-27 11:10 | 5.58062 | 1.77692 | 36975 ft | 439 kts | 91° |
| 2026-04-27 11:10 | 5.57884 | 1.83823 | 36977 ft | 439 kts | 91° |
| 2026-04-27 11:11 | 5.57705 | 1.89953 | 36978 ft | 439 kts | 91° |
| 2026-04-27 11:11 | 5.57525 | 1.96044 | 36981 ft | 439 kts | 91° |
| 2026-04-27 11:12 | 5.57344 | 2.02173 | 36982 ft | 439 kts | 91° |
| 2026-04-27 11:12 | 5.57158 | 2.08305 | 36982 ft | 439 kts | 91° |
| 2026-04-27 11:13 | 5.56978 | 2.14434 | 36985 ft | 439 kts | 91° |
| 2026-04-27 11:13 | 5.56797 | 2.20561 | 36981 ft | 439 kts | 91° |
| 2026-04-27 11:14 | 5.56609 | 2.26684 | 36984 ft | 439 kts | 91° |
| 2026-04-27 11:14 | 5.56428 | 2.32805 | 36986 ft | 439 kts | 91° |
| 2026-04-27 11:15 | 5.56239 | 2.38925 | 36988 ft | 438 kts | 91° |
| 2026-04-27 11:15 | 5.56051 | 2.45046 | 36985 ft | 438 kts | 91° |
| 2026-04-27 11:16 | 5.55860 | 2.51161 | 36989 ft | 438 kts | 91° |
| 2026-04-27 11:16 | 5.55670 | 2.57269 | 36987 ft | 438 kts | 91° |
| 2026-04-27 11:17 | 5.55487 | 2.63382 | 36987 ft | 438 kts | 91° |
| 2026-04-27 11:17 | 5.55307 | 2.69491 | 36988 ft | 438 kts | 91° |
| 2026-04-27 11:18 | 5.55119 | 2.75600 | 36985 ft | 438 kts | 91° |
| 2026-04-27 11:18 | 5.54925 | 2.81668 | 36985 ft | 438 kts | 91° |
| 2026-04-27 11:19 | 5.54738 | 2.87773 | 36984 ft | 438 kts | 91° |
| 2026-04-27 11:19 | 5.54547 | 2.93878 | 36981 ft | 438 kts | 91° |
| 2026-04-27 11:20 | 5.54354 | 2.99983 | 36980 ft | 437 kts | 91° |
| 2026-04-27 11:20 | 5.54165 | 3.06084 | 36979 ft | 438 kts | 91° |
| 2026-04-27 11:21 | 5.53974 | 3.12199 | 36977 ft | 438 kts | 91° |
| 2026-04-27 11:21 | 5.53776 | 3.18318 | 36974 ft | 439 kts | 91° |
| 2026-04-27 11:22 | 5.53579 | 3.24439 | 36973 ft | 439 kts | 91° |
| 2026-04-27 11:22 | 5.53388 | 3.30562 | 36971 ft | 439 kts | 91° |
| 2026-04-27 11:23 | 5.53199 | 3.36694 | 36971 ft | 440 kts | 91° |
| 2026-04-27 11:23 | 5.52995 | 3.42825 | 36968 ft | 440 kts | 91° |
| 2026-04-27 11:24 | 5.52794 | 3.48961 | 36972 ft | 439 kts | 91° |
| 2026-04-27 11:24 | 5.52598 | 3.55084 | 36974 ft | 439 kts | 91° |
| 2026-04-27 11:25 | 5.52400 | 3.61206 | 36971 ft | 439 kts | 91° |
| 2026-04-27 11:25 | 5.52206 | 3.67323 | 36973 ft | 438 kts | 91° |
| 2026-04-27 11:26 | 5.52022 | 3.73053 | 36983 ft | 438 kts | 91° |
| 2026-04-27 11:26 | 5.51825 | 3.79196 | 36978 ft | 438 kts | 91° |
| 2026-04-27 11:27 | 5.51619 | 3.85299 | 36974 ft | 437 kts | 91° |
| 2026-04-27 11:27 | 5.51412 | 3.91405 | 36967 ft | 438 kts | 91° |
| 2026-04-27 11:28 | 5.51211 | 3.97514 | 36966 ft | 438 kts | 91° |
| 2026-04-27 11:28 | 5.51015 | 4.03624 | 36963 ft | 438 kts | 91° |
| 2026-04-27 11:29 | 5.50816 | 4.09740 | 36962 ft | 439 kts | 91° |
| 2026-04-27 11:29 | 5.50604 | 4.15856 | 36972 ft | 439 kts | 91° |
| 2026-04-27 11:30 | 5.50396 | 4.21984 | 36975 ft | 439 kts | 91° |
| 2026-04-27 11:30 | 5.50196 | 4.28105 | 36973 ft | 439 kts | 91° |
| 2026-04-27 11:31 | 5.49991 | 4.34232 | 36971 ft | 439 kts | 91° |
| 2026-04-27 11:31 | 5.49784 | 4.40357 | 36970 ft | 439 kts | 91° |
| 2026-04-27 11:32 | 5.49577 | 4.46486 | 36970 ft | 439 kts | 91° |
| 2026-04-27 11:32 | 5.49371 | 4.52619 | 36973 ft | 440 kts | 91° |
| 2026-04-27 11:33 | 5.49160 | 4.58709 | 36970 ft | 440 kts | 91° |
| 2026-04-27 11:33 | 5.48945 | 4.64841 | 36967 ft | 440 kts | 91° |
| 2026-04-27 11:34 | 5.48742 | 4.70972 | 36976 ft | 439 kts | 91° |
| 2026-04-27 11:34 | 5.48536 | 4.77094 | 36974 ft | 439 kts | 91° |
| 2026-04-27 11:35 | 5.48325 | 4.83211 | 36974 ft | 438 kts | 91° |
| 2026-04-27 11:35 | 5.48117 | 4.89326 | 36972 ft | 438 kts | 91° |
| 2026-04-27 11:36 | 5.47904 | 4.95429 | 36974 ft | 437 kts | 91° |
| 2026-04-27 11:36 | 5.47694 | 5.01522 | 36973 ft | 437 kts | 91° |
| 2026-04-27 11:37 | 5.47480 | 5.07606 | 36972 ft | 436 kts | 91° |
| 2026-04-27 11:37 | 5.47269 | 5.13689 | 36965 ft | 436 kts | 91° |
| 2026-04-27 11:38 | 5.47054 | 5.19775 | 36966 ft | 436 kts | 91° |
| 2026-04-27 11:38 | 5.46836 | 5.25862 | 36961 ft | 436 kts | 91° |
| 2026-04-27 11:39 | 5.46626 | 5.31904 | 36961 ft | 436 kts | 91° |
| 2026-04-27 11:39 | 5.46412 | 5.37992 | 36959 ft | 436 kts | 91° |
| 2026-04-27 11:40 | 5.46197 | 5.44078 | 36956 ft | 436 kts | 91° |
| 2026-04-27 11:40 | 5.45979 | 5.50165 | 36959 ft | 436 kts | 91° |
| 2026-04-27 11:41 | 5.45762 | 5.56249 | 36958 ft | 436 kts | 91° |
| 2026-04-27 11:41 | 5.45546 | 5.62330 | 36954 ft | 436 kts | 91° |
| 2026-04-27 11:42 | 5.45364 | 5.67382 | 36954 ft | 436 kts | 91° |
| 2026-04-27 11:42 | 5.45154 | 5.73458 | 36954 ft | 435 kts | 91° |
| 2026-04-27 11:43 | 5.44938 | 5.79533 | 36952 ft | 435 kts | 91° |
| 2026-04-27 11:43 | 5.44715 | 5.85599 | 36953 ft | 435 kts | 91° |
| 2026-04-27 11:44 | 5.44496 | 5.91656 | 36948 ft | 434 kts | 91° |
| 2026-04-27 11:44 | 5.44276 | 5.97716 | 36953 ft | 434 kts | 91° |
| 2026-04-27 11:45 | 5.44052 | 6.03776 | 36945 ft | 434 kts | 91° |
| 2026-04-27 11:45 | 5.43827 | 6.09833 | 36948 ft | 435 kts | 91° |
| 2026-04-27 11:46 | 5.43608 | 6.15900 | 36942 ft | 435 kts | 91° |
| 2026-04-27 11:46 | 5.43390 | 6.21960 | 36941 ft | 435 kts | 91° |
| 2026-04-27 11:47 | 5.43163 | 6.28020 | 36938 ft | 435 kts | 91° |
| 2026-04-27 11:47 | 5.42938 | 6.34042 | 36933 ft | 435 kts | 91° |
| 2026-04-27 11:48 | 5.42710 | 6.40141 | 36930 ft | 435 kts | 91° |
| 2026-04-27 11:48 | 5.42488 | 6.46167 | 36927 ft | 435 kts | 91° |
| 2026-04-27 11:49 | 5.42258 | 6.52244 | 36935 ft | 436 kts | 91° |
| 2026-04-27 11:49 | 5.42024 | 6.58317 | 36941 ft | 436 kts | 91° |
| 2026-04-27 11:50 | 5.41801 | 6.64389 | 36943 ft | 436 kts | 91° |
| 2026-04-27 11:50 | 5.41585 | 6.70464 | 36933 ft | 436 kts | 91° |
| 2026-04-27 11:51 | 5.41357 | 6.76540 | 36928 ft | 436 kts | 91° |
| 2026-04-27 11:52 | 5.41009 | 6.85664 | 36914 ft | 437 kts | 91° |
| 2026-04-27 11:52 | 5.40780 | 6.91757 | 36915 ft | 437 kts | 91° |
| 2026-04-27 11:53 | 5.40560 | 6.97855 | 36916 ft | 438 kts | 91° |
| 2026-04-27 11:53 | 5.40323 | 7.03961 | 36917 ft | 438 kts | 91° |
| 2026-04-27 11:54 | 5.40062 | 7.10077 | 36912 ft | 439 kts | 95° |
| 2026-04-27 11:54 | 5.38572 | 7.16008 | 36905 ft | 441 kts | 109° |
| 2026-04-27 11:55 | 5.36436 | 7.21786 | 36906 ft | 442 kts | 109° |
| 2026-04-27 11:55 | 5.34303 | 7.27569 | 36916 ft | 442 kts | 109° |
| 2026-04-27 11:56 | 5.32180 | 7.33316 | 36929 ft | 442 kts | 109° |
| 2026-04-27 11:56 | 5.30039 | 7.39101 | 36923 ft | 442 kts | 109° |
| 2026-04-27 11:57 | 5.27897 | 7.44884 | 36924 ft | 442 kts | 109° |
| 2026-04-27 11:57 | 5.25759 | 7.50668 | 36918 ft | 442 kts | 109° |
| 2026-04-27 11:58 | 5.23618 | 7.56453 | 36910 ft | 442 kts | 109° |
| 2026-04-27 11:58 | 5.21471 | 7.62237 | 36908 ft | 442 kts | 109° |
| 2026-04-27 11:59 | 5.19327 | 7.68022 | 36905 ft | 442 kts | 109° |
| 2026-04-27 11:59 | 5.17193 | 7.73807 | 36904 ft | 442 kts | 109° |
| 2026-04-27 12:00 | 5.15057 | 7.79590 | 36897 ft | 442 kts | 109° |
| 2026-04-27 12:00 | 5.12913 | 7.85364 | 36914 ft | 442 kts | 109° |
| 2026-04-27 12:01 | 5.10765 | 7.91135 | 36913 ft | 441 kts | 109° |
| 2026-04-27 12:01 | 5.08630 | 7.96898 | 36902 ft | 441 kts | 109° |
| 2026-04-27 12:02 | 5.06498 | 8.02666 | 36900 ft | 441 kts | 109° |
| 2026-04-27 12:02 | 5.04357 | 8.08422 | 36911 ft | 440 kts | 109° |
| 2026-04-27 12:03 | 5.02233 | 8.14136 | 36923 ft | 440 kts | 109° |
| 2026-04-27 12:03 | 5.01161 | 8.17021 | 36756 ft | 442 kts | 109° |
| 2026-04-27 12:03 | 5.00086 | 8.19913 | 36505 ft | 443 kts | 109° |
| 2026-04-27 12:03 | 4.99010 | 8.22809 | 36257 ft | 444 kts | 109° |
| 2026-04-27 12:04 | 4.97932 | 8.25711 | 36015 ft | 445 kts | 109° |
| 2026-04-27 12:04 | 4.96852 | 8.28623 | 35773 ft | 446 kts | 109° |
| 2026-04-27 12:04 | 4.95769 | 8.31539 | 35540 ft | 447 kts | 109° |
| 2026-04-27 12:04 | 4.94683 | 8.34461 | 35300 ft | 448 kts | 109° |
| 2026-04-27 12:05 | 4.93591 | 8.37397 | 35065 ft | 449 kts | 109° |
| 2026-04-27 12:05 | 4.92500 | 8.40333 | 34834 ft | 451 kts | 109° |
| 2026-04-27 12:05 | 4.91400 | 8.43286 | 34602 ft | 452 kts | 109° |
| 2026-04-27 12:05 | 4.90300 | 8.46239 | 34373 ft | 453 kts | 109° |
| 2026-04-27 12:06 | 4.89199 | 8.49196 | 34146 ft | 452 kts | 109° |
| 2026-04-27 12:06 | 4.88100 | 8.52157 | 33911 ft | 452 kts | 109° |
| 2026-04-27 12:06 | 4.87006 | 8.55101 | 33668 ft | 450 kts | 109° |
| 2026-04-27 12:06 | 4.85916 | 8.58034 | 33410 ft | 448 kts | 109° |
| 2026-04-27 12:07 | 4.84830 | 8.60952 | 33154 ft | 445 kts | 109° |
| 2026-04-27 12:07 | 4.83749 | 8.63855 | 32901 ft | 443 kts | 109° |
| 2026-04-27 12:07 | 4.82673 | 8.66739 | 32654 ft | 441 kts | 109° |
| 2026-04-27 12:07 | 4.81599 | 8.69614 | 32406 ft | 439 kts | 109° |
| 2026-04-27 12:08 | 4.80531 | 8.72476 | 32161 ft | 437 kts | 109° |
| 2026-04-27 12:08 | 4.79470 | 8.75327 | 31919 ft | 435 kts | 109° |
| 2026-04-27 12:08 | 4.78414 | 8.78160 | 31679 ft | 433 kts | 109° |
| 2026-04-27 12:08 | 4.77360 | 8.80984 | 31440 ft | 431 kts | 109° |
| 2026-04-27 12:09 | 4.76327 | 8.83759 | 31203 ft | 429 kts | 109° |
| 2026-04-27 12:09 | 4.75273 | 8.86595 | 30965 ft | 428 kts | 109° |
| 2026-04-27 12:09 | 4.74250 | 8.89343 | 30741 ft | 426 kts | 109° |
| 2026-04-27 12:09 | 4.73216 | 8.92121 | 30514 ft | 424 kts | 109° |
| 2026-04-27 12:10 | 4.72185 | 8.94885 | 30284 ft | 423 kts | 109° |
| 2026-04-27 12:10 | 4.71159 | 8.97637 | 30059 ft | 421 kts | 109° |
| 2026-04-27 12:10 | 4.70138 | 9.00378 | 29815 ft | 419 kts | 109° |
| 2026-04-27 12:10 | 4.69120 | 9.03113 | 29540 ft | 417 kts | 109° |
| 2026-04-27 12:11 | 4.68106 | 9.05831 | 29271 ft | 416 kts | 109° |
| 2026-04-27 12:11 | 4.67093 | 9.08539 | 29018 ft | 414 kts | 109° |
| 2026-04-27 12:11 | 4.66085 | 9.11232 | 28754 ft | 412 kts | 109° |
| 2026-04-27 12:11 | 4.65080 | 9.13917 | 28499 ft | 411 kts | 109° |
| 2026-04-27 12:12 | 4.64083 | 9.16596 | 28247 ft | 409 kts | 109° |
| 2026-04-27 12:12 | 4.63092 | 9.19260 | 27994 ft | 407 kts | 109° |
| 2026-04-27 12:12 | 4.62104 | 9.21914 | 27743 ft | 405 kts | 109° |
| 2026-04-27 12:12 | 4.61119 | 9.24556 | 27499 ft | 404 kts | 109° |
| 2026-04-27 12:13 | 4.60139 | 9.27184 | 27251 ft | 402 kts | 109° |
| 2026-04-27 12:13 | 4.59162 | 9.29802 | 27009 ft | 401 kts | 109° |
| 2026-04-27 12:13 | 4.58187 | 9.32415 | 26767 ft | 399 kts | 109° |
| 2026-04-27 12:13 | 4.57218 | 9.35011 | 26529 ft | 397 kts | 109° |
| 2026-04-27 12:14 | 4.56251 | 9.37598 | 26290 ft | 396 kts | 109° |
| 2026-04-27 12:14 | 4.55287 | 9.40177 | 26055 ft | 394 kts | 110° |
| 2026-04-27 12:14 | 4.54324 | 9.42746 | 25818 ft | 393 kts | 110° |
| 2026-04-27 12:14 | 4.53365 | 9.45304 | 25589 ft | 391 kts | 110° |
| 2026-04-27 12:15 | 4.52411 | 9.47856 | 25359 ft | 390 kts | 110° |
| 2026-04-27 12:15 | 4.51466 | 9.50395 | 25131 ft | 388 kts | 110° |
| 2026-04-27 12:15 | 4.50346 | 9.52851 | 24903 ft | 388 kts | 120° |
| 2026-04-27 12:15 | 4.48767 | 9.55041 | 24678 ft | 387 kts | 131° |
| 2026-04-27 12:16 | 4.46795 | 9.56870 | 24451 ft | 388 kts | 142° |
| 2026-04-27 12:16 | 4.44532 | 9.58271 | 24233 ft | 388 kts | 153° |
| 2026-04-27 12:16 | 4.42020 | 9.59261 | 24012 ft | 388 kts | 159° |
| 2026-04-27 12:16 | 4.39474 | 9.60156 | 23791 ft | 387 kts | 159° |
| 2026-04-27 12:17 | 4.36940 | 9.61052 | 23569 ft | 386 kts | 159° |
| 2026-04-27 12:17 | 4.34414 | 9.61949 | 23338 ft | 384 kts | 159° |
| 2026-04-27 12:17 | 4.31898 | 9.62842 | 23077 ft | 383 kts | 159° |
| 2026-04-27 12:17 | 4.29391 | 9.63731 | 22816 ft | 382 kts | 159° |
| 2026-04-27 12:18 | 4.26887 | 9.64617 | 22556 ft | 380 kts | 159° |
| 2026-04-27 12:18 | 4.24395 | 9.65500 | 22307 ft | 379 kts | 159° |
| 2026-04-27 12:18 | 4.21913 | 9.66378 | 22054 ft | 378 kts | 159° |
| 2026-04-27 12:18 | 4.19441 | 9.67254 | 21803 ft | 376 kts | 159° |
| 2026-04-27 12:19 | 4.16980 | 9.68138 | 21555 ft | 375 kts | 158° |
| 2026-04-27 12:19 | 4.14532 | 9.69030 | 21313 ft | 374 kts | 158° |
| 2026-04-27 12:19 | 4.12096 | 9.69922 | 21067 ft | 372 kts | 158° |
| 2026-04-27 12:19 | 4.09670 | 9.70811 | 20826 ft | 371 kts | 158° |
| 2026-04-27 12:20 | 4.07252 | 9.71696 | 20586 ft | 369 kts | 158° |
| 2026-04-27 12:20 | 4.04849 | 9.72577 | 20323 ft | 366 kts | 158° |
| 2026-04-27 12:20 | 4.02468 | 9.73447 | 19866 ft | 364 kts | 158° |
| 2026-04-27 12:20 | 4.00090 | 9.74314 | 19387 ft | 363 kts | 159° |
| 2026-04-27 12:21 | 3.97715 | 9.75179 | 18899 ft | 363 kts | 158° |
| 2026-04-27 12:21 | 3.95339 | 9.76045 | 18426 ft | 363 kts | 158° |
| 2026-04-27 12:21 | 3.92964 | 9.76910 | 17913 ft | 363 kts | 158° |
| 2026-04-27 12:21 | 3.90592 | 9.77775 | 17420 ft | 362 kts | 158° |
| 2026-04-27 12:22 | 3.88233 | 9.78634 | 16958 ft | 360 kts | 158° |
| 2026-04-27 12:22 | 3.85887 | 9.79487 | 16495 ft | 358 kts | 158° |
| 2026-04-27 12:22 | 3.83582 | 9.80326 | 16038 ft | 356 kts | 158° |
| 2026-04-27 12:22 | 3.81259 | 9.81172 | 15584 ft | 355 kts | 158° |
| 2026-04-27 12:23 | 3.78941 | 9.82016 | 15135 ft | 354 kts | 158° |
| 2026-04-27 12:23 | 3.76634 | 9.82853 | 14677 ft | 351 kts | 158° |
| 2026-04-27 12:23 | 3.74382 | 9.83670 | 14228 ft | 337 kts | 158° |
| 2026-04-27 12:23 | 3.72222 | 9.84454 | 13802 ft | 324 kts | 158° |
| 2026-04-27 12:24 | 3.70077 | 9.85067 | 13077 ft | 323 kts | 173° |
| 2026-04-27 12:24 | 3.67831 | 9.84903 | 12220 ft | 325 kts | 184° |
| 2026-04-27 12:24 | 3.65607 | 9.85014 | 11404 ft | 318 kts | 159° |
| 2026-04-27 12:24 | 3.63777 | 9.86146 | 10619 ft | 308 kts | 129° |
| 2026-04-27 12:25 | 3.62664 | 9.87935 | 9877 ft | 302 kts | 110° |
| 2026-04-27 12:25 | 3.62245 | 9.89916 | 9421 ft | 278 kts | 90° |
| 2026-04-27 12:25 | 3.62478 | 9.91790 | 8793 ft | 272 kts | 73° |
| 2026-04-27 12:25 | 3.63327 | 9.93470 | 8092 ft | 272 kts | 53° |
| 2026-04-27 12:26 | 3.64708 | 9.94761 | 7402 ft | 274 kts | 34° |
| 2026-04-27 12:26 | 3.66460 | 9.95516 | 6730 ft | 276 kts | 14° |
| 2026-04-27 12:26 | 3.68346 | 9.95631 | 6313 ft | 268 kts | 355° |
| 2026-04-27 12:26 | 3.70098 | 9.95149 | 6013 ft | 257 kts | 336° |
| 2026-04-27 12:27 | 3.71713 | 9.94332 | 5735 ft | 260 kts | 336° |
| 2026-04-27 12:27 | 3.73400 | 9.93828 | 5495 ft | 255 kts | 352° |
| 2026-04-27 12:27 | 3.75150 | 9.93518 | 5425 ft | 256 kts | 352° |
| 2026-04-27 12:27 | 3.76886 | 9.93208 | 5370 ft | 242 kts | 352° |
| 2026-04-27 12:28 | 3.78502 | 9.92921 | 5315 ft | 233 kts | 352° |
| 2026-04-27 12:28 | 3.80080 | 9.92642 | 5265 ft | 233 kts | 352° |
| 2026-04-27 12:28 | 3.81677 | 9.92361 | 5211 ft | 233 kts | 352° |
| 2026-04-27 12:28 | 3.83278 | 9.92078 | 5164 ft | 233 kts | 352° |
| 2026-04-27 12:29 | 3.84875 | 9.91797 | 4986 ft | 232 kts | 352° |
| 2026-04-27 12:29 | 3.86459 | 9.91518 | 4703 ft | 231 kts | 352° |
| 2026-04-27 12:29 | 3.88040 | 9.91239 | 4385 ft | 230 kts | 352° |
| 2026-04-27 12:29 | 3.89613 | 9.90922 | 3992 ft | 234 kts | 343° |
| 2026-04-27 12:30 | 3.91042 | 9.90118 | 3604 ft | 239 kts | 320° |
| 2026-04-27 12:30 | 3.92061 | 9.88813 | 3317 ft | 239 kts | 299° |
| 2026-04-27 12:30 | 3.92812 | 9.87337 | 3013 ft | 237 kts | 297° |
| 2026-04-27 12:30 | 3.93553 | 9.85864 | 2706 ft | 236 kts | 297° |
| 2026-04-27 12:31 | 3.94292 | 9.84403 | 2414 ft | 234 kts | 297° |
| 2026-04-27 12:31 | 3.95021 | 9.82967 | 2113 ft | 226 kts | 296° |
| 2026-04-27 12:31 | 3.95716 | 9.81596 | 1831 ft | 215 kts | 296° |
| 2026-04-27 12:31 | 3.96370 | 9.80308 | 1576 ft | 200 kts | 296° |
| 2026-04-27 12:32 | 3.96967 | 9.79130 | 1318 ft | 186 kts | 296° |
| 2026-04-27 12:32 | 3.97522 | 9.78037 | 1097 ft | 167 kts | 296° |
| 2026-04-27 12:32 | 3.98027 | 9.77041 | 891 ft | 154 kts | 296° |
| 2026-04-27 12:32 | 3.98492 | 9.76124 | 706 ft | 142 kts | 296° |
| 2026-04-27 12:33 | 3.98935 | 9.75250 | 527 ft | 140 kts | 297° |
| 2026-04-27 12:33 | 3.99374 | 9.74382 | 349 ft | 139 kts | 297° |
| 2026-04-27 12:33 | 3.99810 | 9.73522 | 163 ft | 138 kts | 298° |
| 2026-04-27 12:33 | 4.00241 | 9.72674 | 29 ft | 128 kts | 297° |
| 2026-04-27 12:34 | 4.00485 | 9.72191 | 31 ft | 102 kts | 297° |
| 2026-04-27 12:34 | 4.00679 | 9.71823 | 35 ft | 31 kts | 296° |
| 2026-04-27 12:34 | 4.00795 | 9.71660 | 36 ft | 26 kts | 4° |
| 2026-04-27 12:34 | 4.00954 | 9.71730 | 35 ft | 26 kts | 13° |
| 2026-04-27 12:35 | 4.01047 | 9.71662 | 36 ft | 18 kts | 308° |
| 2026-04-27 12:35 | 4.01056 | 9.71650 | 36 ft | 0 kts | 306° |